Latest Weather Observations for Camden

IDN60801

Issued at 12:32 pm EDT Thursday 21 March 2019 (issued every 10 minutes, with the page automatically refreshed every 10 minutes)

About weather observations | Map of weather stations | Latest weather observations for NSW | Other Formats
Station Details ID: 068192 Name: CAMDEN AIRPORT AWS Lat: -34.04 Lon: 150.69 Height: 73.9 m
Data from the previous 72 hours. | See also: Recent months at Camden
Date/Time
EDT
Temp
°C
App
Temp
°C
Dew
Point
°C
Rel
Hum
%
Delta-T
°C
Wind Press
QNH
hPa
Press
MSL
hPa
Rain since
9am
mm
Dir  Spd
km/h
Gust
km/h
Spd
kts
Gust
kts
21/12:30pm 25.6 26.1 17.5 61 5.1 SSE 11 19 6 10 1016.6 1016.3 0.0
21/12:00pm 25.4 25.2 17.6 62 4.9 SSE 15 20 8 11 1017.0 1016.7 0.0
21/11:30am 25.2 25.4 18.6 67 4.2 SSE 15 22 8 12 1017.1 1016.8 0.0
21/11:00am 25.1 25.7 18.5 67 4.2 SSE 13 22 7 12 1017.2 1016.9 0.0
21/10:30am 23.5 24.6 18.8 75 3.0 SE 11 19 6 10 1017.3 1017.0 0.0
21/10:00am 20.8 23.1 19.5 92 0.8 ESE 6 9 3 5 1017.3 1017.0 0.0
21/09:30am 20.0 23.6 19.7 98 0.2 CALM 0 0 0 0 1017.0 1016.7 0.0
21/09:00am 19.2 22.5 19.0 99 0.1 CALM 0 0 0 0 1016.6 1016.3 1.2
21/08:30am 18.7 21.8 18.7 100 0.0 CALM 0 0 0 0 1016.4 1016.1 1.2
21/08:00am 18.2 21.1 18.2 100 0.0 CALM 0 0 0 0 1016.3 1016.0 1.2
21/07:30am 17.7 20.4 17.7 100 0.0 CALM 0 0 0 0 1016.1 1015.8 1.2
21/07:00am 17.5 20.1 17.5 100 0.0 CALM 0 0 0 0 1015.7 1015.4 1.2
21/06:30am 17.1 19.5 17.1 100 0.0 CALM 0 0 0 0 1015.3 1015.1 1.2
21/06:00am 16.9 18.1 16.9 100 0.0 SSE 6 7 3 4 1015.1 1014.9 1.2
21/05:31am 16.3 18.4 16.3 100 0.0 CALM 0 0 0 0 1014.8 1014.6 1.2
21/05:30am 16.4 18.6 16.4 100 0.0 CALM 0 0 0 0 1014.8 1014.6 1.2
21/05:00am 16.6 18.8 16.4 99 0.1 CALM 0 0 0 0 1014.6 1014.4 1.2
21/04:40am 16.7 18.9 16.5 99 0.1 CALM 0 0 0 0 1014.5 1014.3 1.2
21/04:32am 16.9 19.3 16.9 100 0.0 CALM 0 0 0 0 1014.4 1014.2 1.2
21/04:30am 17.0 19.3 16.8 99 0.1 CALM 0 0 0 0 1014.4 1014.2 1.2
21/04:00am 17.0 19.3 16.8 99 0.1 CALM 0 0 0 0 1014.4 1014.2 1.2
21/03:38am 17.2 19.7 17.2 100 0.0 CALM 0 0 0 0 1014.4 1014.2 1.2
21/03:30am 17.2 18.9 17.2 100 0.0 SE 4 7 2 4 1014.4 1014.2 1.2
21/03:23am 17.4 18.6 17.4 100 0.0 SE 7 9 4 5 1014.4 1014.2 1.2
21/03:04am 17.4 20.0 17.4 100 0.0 CALM 0 0 0 0 1014.5 1014.3 1.2
21/03:00am 17.3 19.8 17.3 100 0.0 CALM 0 0 0 0 1014.5 1014.3 1.2
21/02:42am 17.6 20.2 17.6 100 0.0 CALM 0 0 0 0 1014.6 1014.4 1.2
21/02:30am 17.6 20.2 17.6 100 0.0 CALM 0 0 0 0 1014.7 1014.5 1.0
21/02:00am 17.8 20.5 17.8 100 0.0 CALM 0 2 0 1 1014.9 1014.7 1.0
21/01:30am 17.9 20.7 17.9 100 0.0 CALM 0 0 0 0 1015.3 1015.1 1.0
21/01:00am 18.4 21.4 18.4 100 0.0 CALM 0 0 0 0 1015.6 1015.3 1.0
21/12:39am 18.3 21.2 18.1 99 0.1 CALM 0 0 0 0 1015.6 1015.3 1.0
21/12:30am 18.3 20.8 18.1 99 0.1 SW 2 7 1 4 1015.7 1015.4 1.0
21/12:27am 18.5 20.8 18.5 100 0.0 SW 4 7 2 4 1015.7 1015.4 1.0
21/12:00am 18.5 21.4 18.3 99 0.1 CALM 0 0 0 0 1015.8 1015.5 1.0
 
Date/Time
EDT
Temp
°C
App
Temp
°C
Dew
Point
°C
Rel
Hum
%
Delta-T
°C
Wind Press
QNH
hPa
Press
MSL
hPa
Rain since
9am
mm
Dir  Spd
km/h
Gust
km/h
Spd
kts
Gust
kts
20/11:30pm 18.7 21.7 18.5 99 0.1 CALM 0 0 0 0 1015.8 1015.5 1.0
20/11:00pm 19.6 23.1 19.6 100 0.0 CALM 0 0 0 0 1015.9 1015.6 1.0
20/10:30pm 19.5 22.9 19.3 99 0.1 CALM 0 0 0 0 1015.7 1015.4 1.0
20/10:18pm 19.6 23.0 19.4 99 0.1 CALM 0 0 0 0 1015.7 1015.4 1.0
20/10:00pm 19.8 23.3 19.6 99 0.1 CALM 0 0 0 0 1015.6 1015.3 1.0
20/09:30pm 20.5 24.2 20.0 97 0.3 CALM 0 0 0 0 1015.6 1015.3 1.0
20/09:00pm 20.8 24.5 20.0 95 0.5 CALM 0 0 0 0 1015.6 1015.3 1.0
20/08:30pm 20.8 24.4 19.8 94 0.6 CALM 0 0 0 0 1015.2 1015.0 1.0
20/08:00pm 21.2 24.4 18.8 86 1.5 CALM 0 6 0 3 1014.5 1014.3 1.0
20/07:30pm 21.3 23.3 18.7 85 1.6 ESE 6 9 3 5 1014.2 1014.0 1.0
20/07:00pm 22.2 23.5 18.4 79 2.4 SE 9 13 5 7 1014.0 1013.8 0.2
20/06:30pm 22.8 24.5 18.6 77 2.7 SE 7 11 4 6 1014.0 1013.8 0.2
20/06:00pm 22.9 24.1 18.2 75 3.0 SE 9 15 5 8 1013.6 1013.4 0.0
20/05:30pm 24.4 24.2 17.6 66 4.3 SE 15 24 8 13 1013.1 1012.9 0.0
20/05:00pm 24.7 24.5 17.7 65 4.4 ESE 15 22 8 12 1012.9 1012.7 0.0
20/04:30pm 27.3 28.0 18.9 60 5.4 E 13 24 7 13 1012.6 1012.4 0.0
20/04:00pm 26.2 26.5 17.8 60 5.3 ESE 13 20 7 11 1012.6 1012.4 0.0
20/03:30pm 26.2 26.2 17.3 58 5.6 E 13 19 7 10 1012.8 1012.6 0.0
20/03:00pm 27.4 28.2 16.4 51 6.8 SSE 7 17 4 9 1012.8 1012.6 0.0
20/02:30pm 26.5 26.3 16.7 55 6.1 SE 13 19 7 10 1013.0 1012.8 0.0
20/02:00pm 26.4 27.4 16.9 56 5.9 SSE 7 13 4 7 1013.3 1013.1 0.0
20/01:30pm 26.7 27.7 16.9 55 6.1 ESE 7 13 4 7 1013.6 1013.4 0.0
20/01:00pm 25.3 25.7 16.4 57 5.5 SSE 9 11 5 6 1014.0 1013.8 0.0
20/12:30pm 25.4 26.5 17.1 60 5.2 SW 7 13 4 7 1014.2 1014.0 0.0
20/12:00pm 26.8 27.5 16.1 52 6.6 WNW 7 13 4 7 1014.4 1014.2 0.0
20/11:30am 25.8 25.9 16.6 56 5.7 E 11 15 6 8 1014.7 1014.5 0.0
20/11:00am 24.7 24.9 16.7 61 4.9 SSE 11 15 6 8 1014.9 1014.7 0.0
20/10:30am 24.4 25.2 17.4 65 4.4 SSW 9 13 5 7 1015.1 1014.9 0.0
20/10:00am 23.3 24.2 17.5 70 3.6 SSW 9 13 5 7 1014.9 1014.7 0.0
20/09:30am 22.2 23.7 18.0 77 2.6 S 7 11 4 6 1014.9 1014.7 0.0
20/09:00am 20.2 22.9 17.8 86 1.5 CALM 0 0 0 0 1014.8 1014.6 0.6
20/08:30am 19.0 21.5 17.3 90 1.0 CALM 0 0 0 0 1014.6 1014.4 0.6
20/08:00am 17.4 19.9 17.2 99 0.1 CALM 0 0 0 0 1014.4 1014.2 0.6
20/07:30am 16.3 18.3 16.1 99 0.1 CALM 0 0 0 0 1014.1 1013.9 0.6
20/07:00am 16.3 18.3 16.1 99 0.1 CALM 0 0 0 0 1013.9 1013.7 0.6
20/06:30am 16.5 17.3 16.3 99 0.1 SE 7 11 4 6 1013.6 1013.4 0.6
20/06:00am 16.8 18.7 16.6 99 0.1 SSE 2 6 1 3 1013.3 1013.1 0.6
20/05:30am 17.1 19.5 16.9 99 0.1 CALM 0 0 0 0 1013.2 1013.0 0.6
20/05:00am 17.4 18.2 17.2 99 0.1 SE 9 11 5 6 1013.0 1012.8 0.6
20/04:30am 17.8 19.7 17.6 99 0.1 SSE 4 9 2 5 1013.2 1013.0 0.6
20/04:00am 18.6 20.4 18.3 98 0.2 SE 6 7 3 4 1013.2 1013.0 0.6
20/03:30am 19.2 22.0 18.9 98 0.2 S 2 6 1 3 1013.2 1013.0 0.6
20/03:00am 19.1 22.1 18.4 96 0.4 CALM 0 0 0 0 1013.5 1013.3 0.6
20/02:30am 19.2 22.5 19.0 99 0.1 CALM 0 0 0 0 1013.7 1013.5 0.6
20/02:00am 19.2 21.3 18.9 98 0.2 WSW 6 6 3 3 1013.8 1013.6 0.6
20/01:30am 19.3 22.6 19.1 99 0.1 CALM 0 0 0 0 1014.0 1013.8 0.6
20/01:00am 19.4 22.7 19.2 99 0.1 CALM 0 0 0 0 1014.1 1013.9 0.6
20/12:30am 19.2 22.4 18.9 98 0.2 CALM 0 0 0 0 1014.3 1014.1 0.6
20/12:00am 19.5 22.9 19.3 99 0.1 CALM 0 0 0 0 1014.6 1014.4 0.6
 
Date/Time
EDT
Temp
°C
App
Temp
°C
Dew
Point
°C
Rel
Hum
%
Delta-T
°C
Wind Press
QNH
hPa
Press
MSL
hPa
Rain since
9am
mm
Dir  Spd
km/h
Gust
km/h
Spd
kts
Gust
kts
19/11:30pm 19.6 23.0 19.3 98 0.2 CALM 0 0 0 0 1014.8 1014.6 0.6
19/11:00pm 19.5 21.0 19.0 97 0.3 SW 9 13 5 7 1014.9 1014.7 0.6
19/10:30pm 19.8 21.2 18.6 93 0.7 SSW 9 13 5 7 1015.0 1014.8 0.0
19/10:00pm 19.6 21.0 17.9 90 1.0 S 7 11 4 6 1014.8 1014.6 0.0
19/09:30pm 20.0 21.2 18.3 90 1.1 S 9 11 5 6 1014.7 1014.5 0.0
19/09:00pm 20.0 20.8 18.1 89 1.2 SSW 11 17 6 9 1014.5 1014.3 0.0
19/08:30pm 21.2 21.8 17.6 80 2.2 SSE 11 22 6 12 1014.0 1013.8 0.0
19/08:00pm 21.3 22.7 17.7 80 2.2 SE 7 11 4 6 1013.6 1013.4 0.0
19/07:30pm 21.8 23.3 17.6 77 2.6 SE 6 11 3 6 1013.2 1013.0 0.0
19/07:00pm 22.1 23.6 18.1 78 2.5 SSW 7 11 4 6 1012.9 1012.7 0.0
19/06:30pm 22.5 23.5 17.8 75 2.9 SW 9 13 5 7 1012.8 1012.6 0.0
19/06:00pm 23.1 23.5 18.2 74 3.1 WSW 13 15 7 8 1012.5 1012.3 0.0
19/05:30pm 23.0 22.8 17.7 72 3.3 WSW 15 17 8 9 1012.3 1012.1 0.0
19/05:00pm 23.6 23.5 16.9 66 4.1 S 13 19 7 10 1012.2 1012.0 0.0
19/04:30pm 23.3 23.1 16.6 66 4.1 SSW 13 17 7 9 1012.1 1011.9 0.0
19/04:00pm 23.7 22.3 16.5 64 4.4 SW 19 24 10 13 1012.0 1011.8 0.0
19/03:30pm 23.6 22.9 17.3 67 3.9 SW 17 22 9 12 1012.1 1011.9 0.0
19/03:00pm 24.5 24.3 16.7 61 4.8 SSW 13 26 7 14 1012.1 1011.9 0.0
19/02:30pm 26.7 26.6 16.9 55 6.1 SSE 13 19 7 10 1012.0 1011.8 0.0
19/02:00pm 24.8 24.3 17.0 62 4.8 SSE 15 22 8 12 1012.3 1012.1 0.0
19/01:30pm 25.3 26.2 17.5 62 4.9 SW 9 15 5 8 1012.4 1012.2 0.0
19/01:00pm 23.0 21.6 17.0 69 3.7 SSW 20 26 11 14 1012.9 1012.7 0.0
19/12:30pm 25.8 24.9 17.7 61 5.1 SW 19 24 10 13 1013.0 1012.8 0.0
19/12:00pm 23.8 21.6 16.8 65 4.3 SSW 24 32 13 17 1013.3 1013.1 0.0
19/11:30am 25.2 24.5 15.5 55 5.9 SSE 13 20 7 11 1013.5 1013.3 0.0
19/11:00am 24.9 24.7 16.6 60 5.1 S 13 17 7 9 1013.7 1013.5 0.0
19/10:30am 23.6 23.5 15.9 62 4.7 SE 11 13 6 7 1013.7 1013.5 0.0
19/10:00am 23.3 24.1 17.3 69 3.7 SSE 9 15 5 8 1013.5 1013.3 0.0
19/09:30am 22.5 23.6 18.1 76 2.8 SSW 9 13 5 7 1013.5 1013.3 0.0
19/09:00am 20.6 23.6 18.5 88 1.3 CALM 0 0 0 0 1013.2 1013.0 2.8
19/08:30am 19.2 22.5 19.0 99 0.1 CALM 0 0 0 0 1013.1 1012.9 2.8
19/08:00am 18.1 21.0 18.1 100 0.0 CALM 0 0 0 0 1013.0 1012.8 2.8
19/07:30am 17.0 18.9 16.8 99 0.1 SE 2 7 1 4 1012.6 1012.4 2.8
19/07:00am 16.7 18.9 16.5 99 0.1 CALM 0 0 0 0 1012.2 1012.0 2.8
19/06:30am 17.0 19.3 16.8 99 0.1 CALM 0 0 0 0 1012.0 1011.8 2.8
19/06:00am 17.4 19.9 17.2 99 0.1 CALM 0 0 0 0 1011.7 1011.5 2.8
19/05:30am 17.1 19.5 16.9 99 0.1 CALM 0 0 0 0 1011.6 1011.4 2.8
19/05:00am 17.1 19.5 16.9 99 0.1 CALM 0 0 0 0 1011.6 1011.4 2.8
19/04:30am 17.3 19.7 17.1 99 0.1 CALM 0 0 0 0 1011.5 1011.3 2.8
19/04:11am 17.4 19.9 17.2 99 0.1 CALM 0 0 0 0 1011.6 1011.4 2.8
19/04:00am 17.8 20.4 17.6 99 0.1 CALM 0 0 0 0 1011.7 1011.5 2.8
19/03:46am 17.7 20.3 17.5 99 0.1 CALM 0 0 0 0 1011.8 1011.6 2.8
19/03:30am 17.7 19.0 17.5 99 0.1 SW 7 9 4 5 1011.8 1011.6 2.8
19/03:00am 17.5 20.0 17.3 99 0.1 CALM 0 0 0 0 1012.0 1011.8 2.8
19/02:30am 17.7 20.3 17.5 99 0.1 CALM 0 0 0 0 1011.9 1011.7 2.8
19/02:00am 18.0 20.7 17.8 99 0.1 CALM 0 0 0 0 1012.2 1012.0 2.8
19/01:30am 18.3 21.2 18.1 99 0.1 CALM 0 0 0 0 1012.7 1012.5 2.8
19/01:00am 18.4 20.0 18.2 99 0.1 WSW 7 9 4 5 1012.8 1012.6 2.8
19/12:30am 18.3 21.2 18.1 99 0.1 CALM 0 0 0 0 1013.0 1012.8 2.8
19/12:08am 18.3 21.2 18.1 99 0.1 CALM 0 0 0 0 1013.1 1012.9 2.8
19/12:00am 18.2 21.0 18.0 99 0.1 CALM 0 0 0 0 1013.0 1012.8 2.8
 
Date/Time
EDT
Temp
°C
App
Temp
°C
Dew
Point
°C
Rel
Hum
%
Delta-T
°C
Wind Press
QNH
hPa
Press
MSL
hPa
Rain since
9am
mm
Dir  Spd
km/h
Gust
km/h
Spd
kts
Gust
kts
18/11:49pm 18.3 21.2 18.1 99 0.1 CALM 0 0 0 0 1013.0 1012.8 2.8
18/11:30pm 18.4 21.3 18.2 99 0.1 CALM 0 0 0 0 1013.1 1012.9 2.8
18/11:00pm 18.5 21.4 18.3 99 0.1 CALM 0 0 0 0 1013.1 1012.9 2.8
18/10:30pm 18.7 21.7 18.5 99 0.1 CALM 0 0 0 0 1013.2 1013.0 2.8
18/10:00pm 18.9 22.0 18.7 99 0.1 CALM 0 0 0 0 1013.1 1012.9 2.8
18/09:30pm 19.0 22.2 18.8 99 0.1 CALM 0 0 0 0 1013.1 1012.9 2.8
18/09:00pm 19.0 22.2 18.8 99 0.1 CALM 0 0 0 0 1012.9 1012.7 2.6
18/08:30pm 19.1 22.3 18.8 98 0.2 CALM 0 0 0 0 1012.6 1012.4 2.6
18/08:00pm 19.2 22.1 18.2 94 0.6 CALM 0 0 0 0 1012.2 1012.0 2.6
18/07:30pm 19.3 21.6 18.5 95 0.5 NNW 4 7 2 4 1011.9 1011.7 2.2
18/07:00pm 19.3 22.2 18.1 93 0.7 CALM 0 0 0 0 1011.8 1011.6 2.2
18/06:30pm 19.4 22.3 18.1 92 0.8 CALM 0 0 0 0 1011.5 1011.3 2.2
18/06:00pm 19.2 19.2 17.2 88 1.2 SE 13 20 7 11 1011.5 1011.3 2.0
18/05:30pm 20.7 20.7 16.3 76 2.7 SSE 11 17 6 9 1011.1 1010.9 2.0
18/05:00pm 20.6 20.9 16.0 75 2.8 SSE 9 15 5 8 1010.9 1010.7 2.0
18/04:30pm 20.0 22.8 18.0 88 1.2 CALM 0 0 0 0 1010.8 1010.6 2.0
18/04:00pm 19.8 21.3 17.6 87 1.4 ESE 6 9 3 5 1010.8 1010.6 2.0
18/03:30pm 19.5 20.7 18.3 93 0.7 SSE 9 11 5 6 1011.0 1010.8 2.0
18/03:12pm 19.0 19.4 18.2 95 0.5 S 13 19 7 10 1011.0 1010.8 2.0
18/03:00pm 19.3 19.8 18.3 94 0.6 SSE 13 17 7 9 1011.1 1010.9 2.0
18/02:45pm 19.4 22.1 18.7 96 0.4 SSW 2 7 1 4 1011.1 1010.9 2.0
18/02:30pm 18.8 20.4 17.8 94 0.6 SW 6 9 3 5 1011.2 1011.0 2.0
18/02:25pm 18.8 19.6 17.3 91 0.9 WSW 9 13 5 7 1011.2 1011.0 1.8
18/02:00pm 20.9 21.8 16.7 77 2.6 NNW 7 13 4 7 1011.1 1010.9 1.6
18/01:30pm 21.5 21.5 16.2 72 3.2 NNW 11 19 6 10 1011.0 1010.8 1.4
18/01:00pm 21.7 22.3 16.9 74 2.9 NNW 9 15 5 8 1011.1 1010.9 1.2

Other formats

Comma delimited format used in spreadsheet applications
http://www.bom.gov.au/fwo/IDN60801/IDN60801.94755.axf

JavaScript Object Notation format (JSON) in row-major order
http://www.bom.gov.au/fwo/IDN60801/IDN60801.94755.json

Data quality

Most of these data are generated automatically and are frequently updated. Quality checks on data are not normally performed. It is possible for incorrect values to appear. Refer to information at About Latest Weather Observations and please check the disclaimer before using these data.